Time;durP1;ratioP1;P1;durP2;ratioP2;P2;SDS_P1;SDS_P2;PMS_P1;PMS_P2;Temp;Humidity;BMP_temperature;BMP_pressure;BME280_temperature;BME280_humidity;BME280_pressure;Samples;Min_cycle;Max_cycle;Signal;HPM_P1;HPM_P2
2023/08/25 00:01:35;;;;;;;11.10;8.20;;;;;;;24.16;54.91;99088.13;4366732;32;33485;-84
2023/08/25 00:04:03;;;;;;;13.27;7.78;;;;;;;24.13;55.11;99099.72;4364489;32;34622;-83
2023/08/25 00:06:30;;;;;;;9.98;7.80;;;;;;;24.19;54.72;99099.44;4366205;32;33642;-83
2023/08/25 00:08:58;;;;;;;10.52;8.20;;;;;;;24.16;54.95;99091.63;4363532;32;33466;-83
2023/08/25 00:11:25;;;;;;;12.00;7.82;;;;;;;24.12;55.08;99092.69;4359166;32;33904;-83
2023/08/25 00:13:53;;;;;;;11.48;7.65;;;;;;;24.20;54.83;99090.56;4358805;32;34303;-83
2023/08/25 00:16:21;;;;;;;11.48;8.43;;;;;;;24.20;54.72;99079.97;4359024;32;34130;-84
2023/08/25 00:18:49;;;;;;;11.32;7.65;;;;;;;24.17;54.84;99066.88;4363822;32;33830;-83
2023/08/25 00:21:16;;;;;;;10.38;8.10;;;;;;;24.25;54.63;99066.53;4373016;32;34705;-84
2023/08/25 00:23:44;;;;;;;11.32;7.53;;;;;;;24.24;54.53;99067.44;4373120;32;34465;-83
2023/08/25 00:26:11;;;;;;;12.82;8.02;;;;;;;24.23;54.29;99071.87;4370848;32;34819;-84
2023/08/25 00:28:39;;;;;;;13.52;8.00;;;;;;;24.20;54.45;99064.06;4365100;32;34008;-83
2023/08/25 00:31:07;;;;;;;10.80;7.57;;;;;;;24.16;54.65;99067.78;4360495;32;33239;-83
2023/08/25 00:33:34;;;;;;;11.20;7.30;;;;;;;24.15;54.72;99067.88;4361048;32;33854;-84
2023/08/25 00:36:02;;;;;;;10.77;7.87;;;;;;;24.11;54.76;99077.75;4361371;32;33731;-84
2023/08/25 00:38:29;;;;;;;11.77;7.25;;;;;;;24.09;54.58;99087.53;4362118;32;35099;-83
2023/08/25 00:41:00;;;;;;;10.32;7.37;;;;;;;24.12;54.51;99084.75;4361556;32;33783;-84
2023/08/25 00:43:27;;;;;;;12.18;7.78;;;;;;;24.15;54.29;99081.97;4361736;32;33653;-84
2023/08/25 00:45:54;;;;;;;11.10;7.93;;;;;;;23.63;56.36;99085.94;4362316;32;33835;-82
2023/08/25 00:48:22;;;;;;;8.50;6.87;;;;;;;23.82;56.10;99089.56;4368119;32;34178;-82
2023/08/25 00:50:51;;;;;;;13.62;7.80;;;;;;;24.09;54.69;99084.88;4367007;32;33806;-82
2023/08/25 00:53:19;;;;;;;11.18;6.93;;;;;;;23.98;55.20;99089.78;4355131;32;33680;-83
2023/08/25 00:55:48;;;;;;;10.10;7.10;;;;;;;24.05;54.53;99083.28;4348378;32;34911;-83
2023/08/25 00:58:16;;;;;;;9.90;7.50;;;;;;;24.06;54.17;99065.63;4361590;32;34246;-83
2023/08/25 01:00:45;;;;;;;9.50;7.18;;;;;;;23.78;54.91;99057.09;4366064;32;34373;-83
2023/08/25 01:03:12;;;;;;;10.85;7.53;;;;;;;23.77;54.89;99054.50;4362158;32;33717;-82
2023/08/25 01:05:40;;;;;;;13.57;8.07;;;;;;;23.87;54.43;99049.69;4347960;32;33809;-82
2023/08/25 01:08:08;;;;;;;11.43;7.57;;;;;;;23.56;55.77;99050.94;4376284;32;34678;-84
2023/08/25 01:10:59;;;;;;;14.40;7.87;;;;;;;23.62;55.63;99045.41;4368181;32;34068;-84
2023/08/25 01:13:34;;;;;;;12.10;7.65;;;;;;;23.68;56.00;99037.25;4362637;32;33602;-82
2023/08/25 01:16:03;;;;;;;10.45;8.20;;;;;;;23.71;56.04;99033.59;4363461;32;34747;-84
2023/08/25 01:18:33;;;;;;;12.98;8.50;;;;;;;23.79;55.95;99040.28;4358632;32;34109;-84
2023/08/25 01:21:03;;;;;;;11.88;9.25;;;;;;;23.67;57.01;99042.59;4361911;32;34247;-83
2023/08/25 01:23:35;;;;;;;12.73;9.23;;;;;;;23.50;57.61;99048.56;4349030;32;33678;-84
2023/08/25 01:26:03;;;;;;;11.30;9.13;;;;;;;23.66;57.09;99044.38;4358237;32;34788;-88
2023/08/25 01:28:31;;;;;;;11.80;7.90;;;;;;;23.71;57.10;99037.09;4347523;32;33710;-84
2023/08/25 01:31:01;;;;;;;13.50;8.68;;;;;;;23.55;58.02;99043.94;4363863;32;34963;-85
2023/08/25 01:33:31;;;;;;;12.57;8.82;;;;;;;23.75;57.58;99041.34;4365268;32;33831;-84
2023/08/25 01:36:10;;;;;;;12.60;8.98;;;;;;;23.92;56.91;99042.41;4347511;32;34815;-83
2023/08/25 01:38:52;;;;;;;13.13;8.95;;;;;;;23.89;57.00;99058.41;4368283;32;35062;-83
2023/08/25 01:41:32;;;;;;;10.02;8.23;;;;;;;23.87;57.28;99070.87;4360521;32;33720;-84
2023/08/25 01:44:02;;;;;;;12.07;8.43;;;;;;;23.83;57.31;99054.25;4349099;32;33848;-85
2023/08/25 01:46:33;;;;;;;11.43;8.73;;;;;;;23.80;57.30;99049.09;4348362;32;33635;-83
2023/08/25 01:49:03;;;;;;;11.18;8.48;;;;;;;23.91;56.98;99045.97;4355558;32;34517;-83
2023/08/25 01:51:32;;;;;;;11.25;8.63;;;;;;;23.85;56.97;99046.25;4370126;32;34826;-83
2023/08/25 01:54:00;;;;;;;12.30;8.57;;;;;;;23.84;57.15;99044.53;4361806;32;33768;-82
2023/08/25 01:56:28;;;;;;;11.48;9.20;;;;;;;23.83;56.95;99037.50;4362005;32;33935;-82
2023/08/25 01:58:56;;;;;;;15.55;9.38;;;;;;;23.81;56.97;99031.41;4361994;32;34905;-83
2023/08/25 02:01:25;;;;;;;12.93;8.60;;;;;;;23.81;56.99;99015.53;4374412;32;35031;-82
2023/08/25 02:03:53;;;;;;;15.32;8.85;;;;;;;23.75;57.15;99020.19;4364443;32;33508;-84
2023/08/25 02:06:21;;;;;;;11.80;8.55;;;;;;;23.70;56.90;99021.28;4372748;32;33701;-83
2023/08/25 02:08:48;;;;;;;15.75;8.25;;;;;;;23.56;57.13;99016.53;4377057;32;33364;-88
2023/08/25 02:11:17;;;;;;;11.23;8.68;;;;;;;23.59;57.11;99012.91;4363827;32;33669;-83
2023/08/25 02:13:44;;;;;;;10.38;8.10;;;;;;;23.62;56.59;99005.69;4360998;32;34559;-83
2023/08/25 02:16:12;;;;;;;12.35;7.82;;;;;;;23.55;56.59;98998.94;4372318;32;34254;-84
2023/08/25 02:18:40;;;;;;;9.75;7.53;;;;;;;23.59;56.68;98989.09;4375236;32;35056;-84
2023/08/25 02:21:08;;;;;;;12.75;8.18;;;;;;;23.44;55.47;98987.97;4370383;32;34799;-92
2023/08/25 02:23:35;;;;;;;10.63;7.97;;;;;;;23.38;55.36;98988.25;4361678;32;34444;-84
2023/08/25 02:26:03;;;;;;;13.70;8.65;;;;;;;;;;4361175;32;33669;-83
2023/08/25 02:28:30;;;;;;;11.57;8.32;;;;;;;23.66;54.98;98978.22;4366311;32;34467;-83
2023/08/25 02:30:59;;;;;;;13.57;9.15;;;;;;;23.56;55.03;98971.56;4363791;32;34167;-91
2023/08/25 02:33:26;;;;;;;12.27;8.48;;;;;;;23.70;54.65;98978.94;4362022;32;34353;-83
2023/08/25 02:35:54;;;;;;;15.10;8.60;;;;;;;23.59;55.19;98981.16;4374133;32;33351;-84
2023/08/25 02:38:21;;;;;;;10.90;7.93;;;;;;;23.62;55.58;98999.56;4361224;32;33904;-83
2023/08/25 02:40:50;;;;;;;12.15;8.60;;;;;;;23.73;55.95;99000.84;4362755;32;34186;-83
2023/08/25 02:43:18;;;;;;;12.23;8.63;;;;;;;23.88;55.38;98994.00;4363340;32;33871;-91
2023/08/25 02:45:45;;;;;;;12.85;8.88;;;;;;;24.17;54.74;98989.19;4367494;32;34606;-83
2023/08/25 02:48:13;;;;;;;12.18;9.05;;;;;;;24.10;54.95;98978.03;4364977;32;34041;-83
2023/08/25 02:50:40;;;;;;;14.45;8.05;;;;;;;24.03;55.04;98976.59;4376057;32;33675;-87
2023/08/25 02:53:08;;;;;;;10.25;8.07;;;;;;;24.13;55.22;98988.50;4369502;32;33556;-83
2023/08/25 02:55:37;;;;;;;11.20;8.35;;;;;;;24.13;55.12;99014.97;4359969;32;33574;-83
2023/08/25 02:58:05;;;;;;;11.60;8.80;;;;;;;24.19;55.36;99025.28;4368705;32;34214;-84
2023/08/25 03:00:32;;;;;;;12.45;9.65;;;;;;;24.22;55.59;99030.44;4373775;32;34476;-84
2023/08/25 03:03:00;;;;;;;12.15;8.73;;;;;;;24.13;55.52;99036.16;4360157;32;33246;-84
2023/08/25 03:05:27;;;;;;;12.45;8.65;;;;;;;24.11;55.56;99042.44;4371214;32;33693;-87
2023/08/25 03:07:55;;;;;;;10.95;8.65;;;;;;;24.21;55.38;99043.78;4364009;32;33833;-82
2023/08/25 03:10:24;;;;;;;10.95;9.05;;;;;;;24.21;55.35;99049.94;4374631;32;35504;-84
2023/08/25 03:12:51;;;;;;;13.68;8.65;;;;;;;24.20;55.27;99049.97;4374895;32;33632;-83
2023/08/25 03:15:19;;;;;;;13.10;8.45;;;;;;;24.23;55.24;99049.84;4367154;32;34899;-84
2023/08/25 03:17:47;;;;;;;11.32;8.05;;;;;;;24.15;55.57;99052.84;4362939;32;33816;-84
2023/08/25 03:20:16;;;;;;;14.87;8.02;;;;;;;24.26;55.37;99058.50;4373291;32;34303;-82
2023/08/25 03:22:44;;;;;;;10.68;8.07;;;;;;;24.22;55.53;99061.38;4373197;32;34499;-82
2023/08/25 03:25:12;;;;;;;10.13;8.27;;;;;;;24.19;55.64;99067.66;4364473;32;33949;-83
2023/08/25 03:27:39;;;;;;;13.50;8.38;;;;;;;24.14;55.90;99072.31;4370621;32;34942;-84
2023/08/25 03:30:07;;;;;;;10.95;7.95;;;;;;;24.12;56.07;99071.50;4368139;32;34222;-84
2023/08/25 03:32:35;;;;;;;12.43;8.65;;;;;;;24.15;56.17;99076.66;4363223;32;33748;-83
2023/08/25 03:35:04;;;;;;;12.45;8.25;;;;;;;24.17;56.31;99087.19;4369739;32;35182;-85
2023/08/25 03:37:32;;;;;;;11.05;8.02;;;;;;;24.23;56.21;99090.44;4364083;32;34900;-84
2023/08/25 03:40:02;;;;;;;12.57;8.38;;;;;;;24.23;56.25;99095.72;4366117;32;34130;-84
2023/08/25 03:42:30;;;;;;;10.93;8.73;;;;;;;24.20;56.54;99106.47;4359981;32;34558;-85
2023/08/25 03:44:58;;;;;;;11.82;8.77;;;;;;;24.30;56.31;99111.38;4364090;32;35493;-84
2023/08/25 03:47:26;;;;;;;9.98;8.02;;;;;;;24.20;56.39;99106.47;4367298;32;34163;-84
2023/08/25 03:49:55;;;;;;;13.80;8.60;;;;;;;24.35;56.50;99120.81;4359610;32;34007;-83
2023/08/25 03:52:23;;;;;;;17.23;9.25;;;;;;;23.66;57.93;99203.19;4360798;32;33503;-83
2023/08/25 03:54:51;;;;;;;11.80;8.85;;;;;;;23.42;57.18;99162.66;4368660;32;35226;-93
2023/08/25 03:57:18;;;;;;;13.88;9.23;;;;;;;23.55;55.78;99150.66;4364514;32;34472;-84
2023/08/25 03:59:46;;;;;;;12.48;9.05;;;;;;;23.95;55.00;99153.50;4376898;32;34700;-84
2023/08/25 04:02:14;;;;;;;12.85;8.40;;;;;;;23.89;55.03;99130.75;4376379;32;32934;-84
2023/08/25 04:04:46;;;;;;;15.60;8.60;;;;;;;24.16;54.81;99119.91;4349508;32;33869;-84
2023/08/25 04:07:13;;;;;;;13.48;8.25;;;;;;;24.38;55.03;99133.09;4368923;32;33746;-84
2023/08/25 04:09:43;;;;;;;10.25;8.07;;;;;;;24.38;56.36;99133.94;4363005;32;33169;-83
2023/08/25 04:12:12;;;;;;;14.85;9.18;;;;;;;24.46;56.13;99113.28;4363282;32;33794;-84
2023/08/25 04:14:40;;;;;;;13.73;8.52;;;;;;;24.48;56.06;99110.59;4362014;32;33974;-83
2023/08/25 04:17:07;;;;;;;11.23;8.48;;;;;;;24.56;55.69;99102.28;4363059;32;34941;-85
2023/08/25 04:19:35;;;;;;;10.77;8.07;;;;;;;24.52;55.94;99110.38;4362663;32;34099;-85
2023/08/25 04:22:03;;;;;;;12.77;8.85;;;;;;;24.42;55.73;99101.09;4363021;32;33728;-84
2023/08/25 04:24:30;;;;;;;12.73;8.38;;;;;;;24.48;56.09;99084.94;4361742;32;33937;-85
2023/08/25 04:26:58;;;;;;;11.45;7.90;;;;;;;24.62;55.82;99068.38;4361836;32;34757;-85
2023/08/25 04:29:25;;;;;;;12.80;8.77;;;;;;;24.72;55.48;99066.19;4361229;32;34788;-85
2023/08/25 04:31:53;;;;;;;11.90;8.55;;;;;;;24.64;55.65;99049.78;4363008;32;32682;-85
2023/08/25 04:34:22;;;;;;;14.18;8.70;;;;;;;24.53;56.09;99050.28;4366083;32;33840;-85
2023/08/25 04:36:50;;;;;;;11.10;7.68;;;;;;;24.41;56.50;99053.50;4371894;32;35093;-82
2023/08/25 04:39:18;;;;;;;12.48;8.07;;;;;;;24.08;55.06;99050.53;4372091;32;33936;-82
2023/08/25 04:41:46;;;;;;;16.00;8.18;;;;;;;24.28;54.12;99050.47;4368393;32;33518;-83
2023/08/25 04:44:15;;;;;;;14.48;7.70;;;;;;;24.19;54.32;99054.41;4370240;32;34662;-83
2023/08/25 04:46:42;;;;;;;11.12;8.73;;;;;;;24.22;54.85;99056.94;4364121;32;34144;-83
2023/08/25 04:49:10;;;;;;;12.65;8.02;;;;;;;24.23;55.73;99053.34;4366400;32;34359;-83
2023/08/25 04:51:39;;;;;;;14.00;8.13;;;;;;;24.32;55.91;99045.91;4376375;32;34097;-82
2023/08/25 04:54:07;;;;;;;13.18;8.02;;;;;;;24.31;55.83;99026.50;4376765;32;34658;-82
2023/08/25 04:56:35;;;;;;;12.00;8.68;;;;;;;24.38;54.79;99013.84;4353144;32;33972;-83
2023/08/25 04:59:03;;;;;;;13.43;8.88;;;;;;;24.48;54.83;99016.03;4371997;32;34733;-94
2023/08/25 05:01:31;;;;;;;15.82;8.80;;;;;;;24.49;55.38;99007.16;4362625;32;33667;-82
2023/08/25 05:04:00;;;;;;;12.73;7.93;;;;;;;24.52;54.71;98992.91;4362398;32;33500;-86
2023/08/25 05:06:28;;;;;;;16.95;8.63;;;;;;;24.25;55.30;98982.63;4375256;32;34653;-85
2023/08/25 05:08:57;;;;;;;12.88;8.90;;;;;;;24.54;54.69;98967.16;4376002;32;33715;-84
2023/08/25 05:11:25;;;;;;;11.98;8.82;;;;;;;24.52;55.35;98966.41;4367057;32;33672;-85
2023/08/25 05:13:54;;;;;;;15.13;9.85;;;;;;;24.69;55.05;98961.12;4364321;32;33973;-86
2023/08/25 05:16:21;;;;;;;13.38;8.82;;;;;;;24.71;54.92;98984.94;4364719;32;33810;-84
2023/08/25 05:18:49;;;;;;;13.80;9.15;;;;;;;24.41;57.17;99022.56;4361782;32;34090;-91
2023/08/25 05:21:17;;;;;;;15.82;9.48;;;;;;;24.70;58.24;99031.81;4362062;32;33784;-83
2023/08/25 05:23:48;;;;;;;16.80;9.90;;;;;;;24.36;57.61;99018.34;4367094;32;35055;-84
2023/08/25 05:26:16;;;;;;;16.75;10.70;;;;;;;23.96;60.38;99009.56;4362589;32;35129;-84
2023/08/25 05:28:44;;;;;;;16.17;11.20;;;;;;;23.72;61.43;99020.31;4373414;32;34301;-84
2023/08/25 05:31:12;;;;;;;16.30;12.18;;;;;;;23.20;63.93;99009.22;4363013;32;33853;-84
2023/08/25 05:33:42;;;;;;;13.80;11.70;;;;;;;23.58;62.89;98992.69;4363322;32;33998;-83
2023/08/25 05:36:10;;;;;;;13.77;10.70;;;;;;;23.69;62.67;98983.38;4373430;32;33032;-84
2023/08/25 05:38:37;;;;;;;15.25;11.90;;;;;;;23.75;63.23;98971.66;4374159;32;33828;-84
2023/08/25 05:41:05;;;;;;;16.33;11.93;;;;;;;23.97;62.74;98975.06;4366920;32;33636;-83
2023/08/25 05:43:32;;;;;;;17.40;11.32;;;;;;;23.79;63.64;98968.81;4374066;32;33838;-84
2023/08/25 05:46:00;;;;;;;16.67;10.93;;;;;;;23.87;63.49;98980.84;4366177;32;34978;-85
2023/08/25 05:48:28;;;;;;;14.18;11.63;;;;;;;23.83;63.98;98989.84;4345882;32;34100;-85
2023/08/25 05:50:56;;;;;;;15.02;11.80;;;;;;;23.89;63.77;98990.44;4361265;32;33495;-89
2023/08/25 05:53:23;;;;;;;15.38;12.30;;;;;;;23.73;64.07;99005.28;4360373;32;34596;-84
2023/08/25 05:55:51;;;;;;;13.07;11.10;;;;;;;23.68;64.38;99009.91;4363109;32;34004;-85
2023/08/25 05:58:19;;;;;;;17.23;11.60;;;;;;;24.00;63.57;99016.44;4362029;32;34687;-83
2023/08/25 06:00:46;;;;;;;13.70;11.82;;;;;;;23.90;63.47;99023.06;4363574;32;34592;-83
2023/08/25 06:03:16;;;;;;;13.43;11.30;;;;;;;23.91;63.87;99025.66;4365422;32;33997;-84
2023/08/25 06:05:46;;;;;;;12.50;10.23;;;;;;;23.88;63.87;99031.09;4349773;32;33669;-83
2023/08/25 06:08:14;;;;;;;12.65;10.73;;;;;;;23.92;64.19;99026.50;4357721;32;33890;-83
2023/08/25 06:10:41;;;;;;;13.20;10.65;;;;;;;23.95;64.48;99023.75;4369970;32;33709;-84
2023/08/25 06:13:09;;;;;;;14.32;10.45;;;;;;;23.93;64.88;99025.56;4368766;32;34851;-83
2023/08/25 06:15:36;;;;;;;13.75;10.45;;;;;;;24.04;64.71;99034.75;4361740;32;35117;-84
2023/08/25 06:18:04;;;;;;;16.45;10.65;;;;;;;24.17;64.55;99036.84;4365052;32;32925;-84
2023/08/25 06:20:32;;;;;;;13.15;10.90;;;;;;;23.86;65.66;99029.41;4364319;32;37047;-86
2023/08/25 06:22:59;;;;;;;13.55;11.07;;;;;;;23.94;65.93;99028.19;4367610;32;34851;-84
2023/08/25 06:25:28;;;;;;;12.75;11.15;;;;;;;24.21;65.65;99017.28;4375196;32;35111;-87
2023/08/25 06:27:55;;;;;;;12.73;11.20;;;;;;;24.28;65.85;99024.00;4370086;32;34106;-85
2023/08/25 06:30:25;;;;;;;13.70;10.07;;;;;;;24.37;65.76;99025.37;4360343;32;34683;-85
2023/08/25 06:32:53;;;;;;;13.05;11.25;;;;;;;24.20;66.37;99032.28;4348022;32;34799;-86
2023/08/25 06:35:21;;;;;;;14.90;10.23;;;;;;;24.50;66.00;99034.50;4360233;32;33862;-85
2023/08/25 06:37:49;;;;;;;15.38;12.02;;;;;;;24.49;65.93;99019.53;4361446;32;34155;-86
2023/08/25 06:40:17;;;;;;;14.98;11.93;;;;;;;24.34;67.25;99012.28;4373938;32;33299;-86
2023/08/25 06:42:45;;;;;;;14.85;11.30;;;;;;;24.72;66.18;99021.97;4374973;32;34622;-87
2023/08/25 06:45:12;;;;;;;17.58;11.05;;;;;;;24.72;66.29;99014.03;4364295;32;34599;-86
2023/08/25 06:47:40;;;;;;;15.10;12.32;;;;;;;24.61;66.90;99024.25;4363200;32;34192;-86
2023/08/25 06:50:08;;;;;;;18.42;12.20;;;;;;;24.71;61.92;99014.97;4367624;32;33427;-85
2023/08/25 06:52:36;;;;;;;18.20;13.10;;;;;;;24.59;60.33;99020.84;4345644;32;34942;-84
2023/08/25 06:55:04;;;;;;;16.08;12.93;;;;;;;24.62;62.20;99020.69;4357929;32;33958;-84
2023/08/25 06:57:34;;;;;;;17.75;12.93;;;;;;;24.52;62.24;99016.75;4374768;32;34262;-85
2023/08/25 07:00:03;;;;;;;16.98;14.13;;;;;;;24.76;62.91;99017.37;4375333;32;33884;-85
2023/08/25 07:02:31;;;;;;;19.92;12.50;;;;;;;24.75;61.40;99013.88;4374354;32;33777;-84
2023/08/25 07:04:58;;;;;;;18.90;13.93;;;;;;;24.88;62.29;99019.44;4368145;32;34272;-87
2023/08/25 07:07:26;;;;;;;15.82;11.82;;;;;;;25.06;62.62;99025.66;4360620;32;34207;-86
2023/08/25 07:09:54;;;;;;;16.33;12.37;;;;;;;25.39;62.94;99035.59;4360001;32;33173;-88
2023/08/25 07:12:21;;;;;;;15.57;11.95;;;;;;;25.34;62.73;99027.84;4359845;32;34120;-88
2023/08/25 07:14:49;;;;;;;19.52;11.85;;;;;;;25.75;63.06;99026.69;4370793;32;34605;-88
2023/08/25 07:17:16;;;;;;;15.65;11.07;;;;;;;26.05;62.71;99026.91;4374835;32;34172;-88
2023/08/25 07:19:44;;;;;;;16.12;11.05;;;;;;;26.15;62.22;99034.31;4374870;32;33820;-87
2023/08/25 07:48:01;;;;;;;13.65;11.15;;;;;;;26.95;55.47;99045.94;4370260;32;20130;-92
2023/08/25 07:50:30;;;;;;;15.38;11.45;;;;;;;26.77;55.10;99036.31;4351290;32;33820;-92
2023/08/25 07:52:58;;;;;;;17.50;10.77;;;;;;;27.34;56.82;99018.87;4359066;32;34809;-93
2023/08/25 07:55:26;;;;;;;19.58;12.23;;;;;;;27.39;53.86;99015.97;4362400;32;34340;-91
2023/08/25 07:57:54;;;;;;;16.20;10.95;;;;;;;27.39;53.29;99010.66;4361408;32;33496;-93
2023/08/25 08:00:22;;;;;;;16.70;10.60;;;;;;;27.43;55.24;99017.50;4356282;32;33558;-92
2023/08/25 08:02:50;;;;;;;14.93;10.15;;;;;;;27.71;52.97;99015.84;4361636;32;33496;-91
2023/08/25 08:05:19;;;;;;;12.52;10.25;;;;;;;27.90;51.62;99011.16;4353349;32;33570;-94
2023/08/25 08:07:50;;;;;;;14.57;10.00;;;;;;;27.80;53.51;99007.31;4360111;32;32927;-91
2023/08/25 08:10:18;;;;;;;15.52;10.52;;;;;;;27.43;52.72;99012.19;4361003;32;33883;-89
2023/08/25 08:12:46;;;;;;;12.98;9.80;;;;;;;27.59;53.16;99012.97;4360890;32;34231;-90
2023/08/25 08:15:14;;;;;;;12.27;9.65;;;;;;;27.60;54.56;99006.69;4361331;32;34971;-89
2023/08/25 08:17:42;;;;;;;13.70;8.48;;;;;;;27.95;54.72;99006.41;4347915;32;33552;-89
2023/08/25 08:20:13;;;;;;;15.60;9.68;;;;;;;27.64;56.35;99005.56;4361480;32;34787;-89
2023/08/25 08:22:41;;;;;;;15.18;8.52;;;;;;;27.91;55.90;99012.88;4348077;32;34660;-89
2023/08/25 08:25:10;;;;;;;11.38;8.60;;;;;;;27.92;55.06;99013.72;4361265;32;32856;-89
2023/08/25 08:27:39;;;;;;;14.65;8.25;;;;;;;27.79;55.53;99009.13;4361244;32;33606;-90
2023/08/25 08:30:08;;;;;;;14.40;8.52;;;;;;;27.44;53.30;99005.91;4347750;32;33934;-90
2023/08/25 08:32:37;;;;;;;13.10;8.07;;;;;;;27.51;53.28;99006.41;4361184;32;34865;-90
2023/08/25 08:35:08;;;;;;;12.50;8.50;;;;;;;27.56;52.84;99009.63;4347590;32;34051;-89
2023/08/25 08:37:37;;;;;;;13.68;7.87;;;;;;;27.95;52.24;99010.87;4347984;32;33589;-88
2023/08/25 08:40:05;;;;;;;13.45;7.03;;;;;;;28.13;52.27;99002.59;4347918;32;34209;-89
2023/08/25 08:42:33;;;;;;;10.55;7.20;;;;;;;28.10;52.63;99004.59;4353931;32;34658;-89
2023/08/25 08:45:09;;;;;;;12.05;6.87;;;;;;;28.12;51.78;99008.03;4333255;33;33797;-88
2023/08/25 08:47:37;;;;;;;11.93;6.53;;;;;;;28.25;51.88;99005.47;4346219;33;33598;-89
2023/08/25 08:50:06;;;;;;;13.90;6.40;;;;;;;28.61;51.66;99003.19;4350298;32;33818;-90
2023/08/25 08:52:35;;;;;;;13.18;5.62;;;;;;;28.96;49.81;99005.38;4338130;32;34175;-89
2023/08/25 08:55:07;;;;;;;9.25;4.30;;;;;;;28.81;50.28;99009.03;4318511;33;33334;-91
2023/08/25 08:57:35;;;;;;;11.95;5.53;;;;;;;29.00;46.36;99004.25;4333861;32;33823;-88
2023/08/25 09:00:07;;;;;;;15.07;5.20;;;;;;;29.09;46.23;99005.44;4350367;32;33825;-86
2023/08/25 09:02:36;;;;;;;8.90;5.53;;;;;;;28.91;48.34;99011.97;4358107;32;34818;-87
2023/08/25 09:05:05;;;;;;;12.18;5.78;;;;;;;28.76;50.92;99022.69;4353337;32;33725;-86
2023/08/25 09:07:33;;;;;;;9.60;5.72;;;;;;;29.13;49.54;99004.28;4335174;32;33581;-88
2023/08/25 09:10:02;;;;;;;10.50;5.68;;;;;;;28.89;48.84;99006.72;4336719;33;34153;-87
2023/08/25 09:12:29;;;;;;;11.20;5.37;;;;;;;29.01;48.11;99007.75;4345940;33;34028;-85
2023/08/25 09:14:57;;;;;;;9.32;5.28;;;;;;;28.89;49.07;99006.72;4332587;33;33348;-86
2023/08/25 09:17:25;;;;;;;10.65;5.60;;;;;;;29.11;49.65;99006.22;4346089;33;34284;-86
2023/08/25 09:20:04;;;;;;;10.68;5.87;;;;;;;29.44;49.75;99002.25;4354454;32;33728;-86
2023/08/25 09:22:34;;;;;;;8.77;5.80;;;;;;;29.85;46.86;99006.59;4347495;32;35087;-86
2023/08/25 09:25:02;;;;;;;13.95;5.70;;;;;;;29.70;46.22;99004.06;4340471;32;33659;-84
2023/08/25 09:27:29;;;;;;;9.48;5.47;;;;;;;29.57;48.42;98997.78;4335594;33;33836;-84
2023/08/25 09:30:05;;;;;;;9.65;5.35;;;;;;;29.54;49.46;98998.84;4341600;32;35000;-87
2023/08/25 09:32:33;;;;;;;9.40;5.50;;;;;;;29.76;47.21;98995.59;4332811;33;34522;-87
2023/08/25 09:35:12;;;;;;;10.32;5.43;;;;;;;29.55;47.44;98994.37;4345974;33;33840;-96
2023/08/25 09:37:43;;;;;;;13.18;5.60;;;;;;;29.92;45.52;98992.72;4359413;32;34807;-87
2023/08/25 09:40:12;;;;;;;11.63;5.03;;;;;;;30.26;45.09;98990.38;4360717;32;34261;-88
2023/08/25 09:42:40;;;;;;;10.05;5.03;;;;;;;29.96;46.72;98991.53;4360718;32;33894;-87
2023/08/25 09:45:09;;;;;;;9.07;4.82;;;;;;;30.03;46.75;98994.63;4360722;32;33384;-87
2023/08/25 09:47:37;;;;;;;10.88;4.72;;;;;;;30.27;46.80;99002.81;4346647;32;33698;-88
2023/08/25 09:50:05;;;;;;;8.77;4.72;;;;;;;30.37;44.94;98995.81;4345709;33;34961;-87
2023/08/25 09:52:36;;;;;;;9.27;4.60;;;;;;;30.33;45.93;98999.69;4345942;33;34700;-86
2023/08/25 09:55:05;;;;;;;6.32;3.75;;;;;;;30.43;44.98;99002.56;4332640;33;34471;-87
2023/08/25 09:57:34;;;;;;;7.35;3.62;;;;;;;30.85;41.88;98987.91;4357711;32;34955;-87
2023/08/25 10:00:04;;;;;;;6.40;3.03;;;;;;;30.61;45.71;98984.31;4347052;32;33769;-89
2023/08/25 10:02:37;;;;;;;8.43;3.75;;;;;;;30.87;40.38;98975.25;4360401;32;35123;-86
2023/08/25 10:05:09;;;;;;;7.43;3.10;;;;;;;31.04;40.81;98968.66;4360517;32;33485;-86
2023/08/25 10:07:37;;;;;;;8.93;2.85;;;;;;;30.98;43.36;98974.47;4347808;32;33670;-87
2023/08/25 10:10:05;;;;;;;7.47;3.42;;;;;;;31.07;41.24;98978.31;4347051;32;35305;-87
2023/08/25 10:12:34;;;;;;;10.07;2.92;;;;;;;30.97;40.96;98970.94;4360368;32;34960;-87
2023/08/25 10:15:03;;;;;;;5.35;2.53;;;;;;;31.39;40.06;98976.75;4335570;33;34389;-93
2023/08/25 10:17:31;;;;;;;10.30;2.58;;;;;;;31.24;39.58;98967.16;4345263;33;33607;-91
2023/08/25 10:20:01;;;;;;;7.10;3.10;;;;;;;31.11;39.67;98967.25;4345484;32;32821;-88
2023/08/25 10:22:29;;;;;;;5.85;2.40;;;;;;;31.34;39.70;98970.88;4332823;32;34110;-94
2023/08/25 10:25:01;;;;;;;8.68;3.20;;;;;;;31.36;39.13;98966.25;4334566;32;34487;-87
2023/08/25 10:27:30;;;;;;;10.20;3.03;;;;;;;31.20;40.20;98973.72;4332311;33;34597;-86
2023/08/25 10:29:58;;;;;;;8.85;3.17;;;;;;;31.45;39.60;98968.25;4332453;33;35158;-93
2023/08/25 10:32:49;;;;;;;12.57;6.57;;;;;;;31.60;43.09;98976.09;4345376;33;34464;-86
2023/08/25 10:35:46;;;;;;;7.25;1.83;;;;;;;31.74;38.70;98971.34;4353329;32;33767;-87
2023/08/25 10:38:19;;;;;;;10.10;3.90;;;;;;;31.86;36.93;98972.28;4343842;33;33927;-88
2023/08/25 10:40:53;;;;;;;10.15;2.75;;;;;;;31.83;37.91;98972.47;4343469;32;35018;-88
2023/08/25 10:43:29;;;;;;;6.45;2.00;;;;;;;31.64;37.71;98973.03;4341822;33;34085;-88
2023/08/25 10:46:07;;;;;;;8.73;2.00;;;;;;;32.17;36.56;98972.53;4343247;33;33265;-87
2023/08/25 10:48:40;;;;;;;10.38;4.85;;;;;;;32.11;39.72;98975.69;4329499;33;34322;-89
2023/08/25 10:51:19;;;;;;;21.27;5.93;;;;;;;31.53;36.92;98973.00;4338108;32;34508;-86
2023/08/25 10:53:52;;;;;;;10.70;3.65;;;;;;;31.54;37.76;98968.50;4360300;32;35319;-87
2023/08/25 10:56:23;;;;;;;6.68;2.17;;;;;;;31.97;38.46;98974.97;4346860;32;33754;-87
2023/08/25 10:58:56;;;;;;;5.00;1.92;;;;;;;32.29;36.77;98965.31;4345402;33;33701;-88
2023/08/25 11:01:25;;;;;;;4.78;2.08;;;;;;;31.74;37.02;98959.75;4345333;33;34521;-89
2023/08/25 11:04:12;;;;;;;6.25;2.50;;;;;;;32.01;35.36;98964.81;4330452;33;34728;-87
2023/08/25 11:06:42;;;;;;;6.70;2.37;;;;;;;31.78;37.65;98961.22;4322352;32;33582;-89
2023/08/25 11:09:37;;;;;;;8.88;2.87;;;;;;;31.84;37.80;98965.28;4344228;33;34030;-91
2023/08/25 11:12:07;;;;;;;6.87;2.12;;;;;;;31.74;38.10;98957.09;4343008;33;33918;-87
2023/08/25 11:14:39;;;;;;;8.82;2.15;;;;;;;32.18;38.78;98958.13;4343680;32;33823;-97
2023/08/25 11:17:09;;;;;;;7.80;2.45;;;;;;;32.21;36.80;98960.56;4362655;32;33984;-89
2023/08/25 11:19:39;;;;;;;8.00;2.35;;;;;;;32.16;36.26;98954.72;4347198;32;34714;-91
2023/08/25 11:22:11;;;;;;;7.07;2.17;;;;;;;32.35;35.50;98954.97;4360601;32;34102;-96
2023/08/25 11:24:39;;;;;;;6.97;2.80;;;;;;;32.07;36.67;98958.97;4359420;32;35608;-88
2023/08/25 11:27:11;;;;;;;7.12;3.08;;;;;;;31.84;37.21;98955.41;4359801;32;33820;-87
2023/08/25 11:29:45;;;;;;;6.85;2.55;;;;;;;31.96;36.87;98957.16;4359683;32;34007;-87
2023/08/25 11:32:14;;;;;;;6.30;2.83;;;;;;;32.11;35.55;98957.75;4359391;32;34177;-86
2023/08/25 11:34:47;;;;;;;5.85;2.85;;;;;;;32.21;37.53;98958.75;4343419;32;34463;-88
2023/08/25 11:37:15;;;;;;;10.18;2.92;;;;;;;31.98;37.57;98955.22;4331635;33;34448;-86
2023/08/25 11:39:43;;;;;;;7.12;2.75;;;;;;;32.15;36.06;98945.81;4331255;33;33295;-89
2023/08/25 11:42:11;;;;;;;8.30;3.15;;;;;;;32.06;37.06;98949.25;4344588;33;35011;-89
2023/08/25 11:44:43;;;;;;;6.85;2.85;;;;;;;32.23;36.57;98951.41;4332131;32;34929;-87
2023/08/25 11:47:11;;;;;;;5.75;2.70;;;;;;;32.30;39.04;98946.41;4316387;33;33764;-88
2023/08/25 11:49:39;;;;;;;8.10;2.60;;;;;;;32.26;37.85;98938.75;4316645;33;35276;-88
2023/08/25 11:52:07;;;;;;;5.57;2.92;;;;;;;32.20;39.13;98946.31;4328628;33;34338;-88
2023/08/25 11:54:48;;;;;;;8.02;3.35;;;;;;;32.61;37.01;98943.94;4343794;32;33980;-88
2023/08/25 11:57:16;;;;;;;9.65;2.83;;;;;;;32.27;37.38;98937.75;4359076;32;34569;-87
2023/08/25 11:59:47;;;;;;;7.90;3.00;;;;;;;32.37;39.07;98938.72;4342253;32;34732;-87
2023/08/25 12:02:16;;;;;;;6.30;2.80;;;;;;;32.59;36.70;98937.88;4352537;32;34176;-89